createdAt,value
2019-04-14T00:02:05.315Z,24.07
2019-04-14T00:04:37.890Z,27.20
2019-04-14T00:07:05.827Z,24.43
2019-04-14T00:09:33.763Z,25.17
2019-04-14T00:12:04.341Z,24.73
2019-04-14T00:14:31.495Z,25.47
2019-04-14T00:16:59.692Z,25.53
2019-04-14T00:19:28.339Z,24.70
2019-04-14T00:22:00.856Z,25.90
2019-04-14T00:24:29.103Z,23.63
2019-04-14T00:26:57.329Z,24.70
2019-04-14T00:29:26.251Z,26.40
2019-04-14T00:31:55.058Z,24.53
2019-04-14T00:34:40.292Z,25.30
2019-04-14T00:37:33.696Z,24.70
2019-04-14T00:40:15.328Z,24.67
2019-04-14T00:42:58.171Z,23.23
2019-04-14T00:45:41.540Z,23.50
2019-04-14T00:48:24.161Z,24.83
2019-04-14T00:50:52.067Z,23.60
2019-04-14T00:53:20.600Z,23.30
2019-04-14T00:55:48.947Z,23.33
2019-04-14T00:58:17.089Z,24.83
2019-04-14T01:00:45.151Z,24.10
2019-04-14T01:03:13.423Z,23.23
2019-04-14T01:05:41.548Z,25.47
2019-04-14T01:08:09.671Z,23.07
2019-04-14T01:10:37.099Z,23.30
2019-04-14T01:13:06.720Z,23.30
2019-04-14T01:15:46.723Z,24.73
2019-04-14T01:18:03.618Z,23.37
2019-04-14T01:20:31.841Z,25.20
2019-04-14T01:22:59.838Z,24.93
2019-04-14T01:25:28.183Z,24.17
2019-04-14T01:27:56.024Z,24.40
2019-04-14T01:30:24.133Z,24.80
2019-04-14T01:32:52.211Z,23.37
2019-04-14T01:35:20.284Z,24.27
2019-04-14T01:37:48.637Z,22.90
2019-04-14T01:40:16.391Z,24.53
2019-04-14T01:42:44.229Z,24.40
2019-04-14T01:45:14.281Z,24.33
2019-04-14T01:47:42.050Z,24.20
2019-04-14T01:50:10.495Z,23.13
2019-04-14T01:52:57.443Z,23.70
2019-04-14T01:55:44.077Z,24.63
2019-04-14T01:58:25.051Z,24.80
2019-04-14T02:01:01.916Z,23.40
2019-04-14T02:03:30.227Z,24.80
2019-04-14T02:05:58.293Z,23.03
2019-04-14T02:08:26.240Z,25.43
2019-04-14T02:10:54.404Z,22.93
2019-04-14T02:13:22.551Z,24.63
2019-04-14T02:15:50.657Z,24.03
2019-04-14T02:18:18.567Z,23.60
2019-04-14T02:20:46.837Z,24.60
2019-04-14T02:23:14.700Z,26.10
2019-04-14T02:25:42.927Z,25.50
2019-04-14T02:28:11.260Z,25.20
2019-04-14T02:30:48.435Z,25.63
2019-04-14T02:36:14.487Z,25.57
2019-04-14T02:38:43.476Z,25.93
2019-04-14T02:41:02.432Z,25.27
2019-04-14T02:46:02.476Z,23.33
2019-04-14T02:51:07.979Z,24.60
2019-04-14T02:53:32.625Z,26.63
2019-04-14T02:56:07.611Z,24.90
2019-04-14T02:58:48.555Z,25.13
2019-04-14T03:01:21.175Z,25.37
2019-04-14T03:03:33.555Z,23.90
2019-04-14T03:06:01.845Z,24.47
2019-04-14T03:08:29.409Z,24.10
2019-04-14T03:10:55.819Z,24.67
2019-04-14T03:18:38.214Z,24.50
2019-04-14T03:21:29.965Z,25.87
2019-04-14T03:24:03.615Z,24.50
2019-04-14T03:26:41.610Z,23.93
2019-04-14T03:29:16.953Z,25.10
2019-04-14T03:32:11.139Z,23.57
2019-04-14T03:34:34.566Z,24.63
2019-04-14T03:39:33.258Z,25.47
2019-04-14T03:44:19.193Z,26.40
2019-04-14T03:46:41.481Z,24.93
2019-04-14T03:51:57.769Z,26.03
2019-04-14T03:54:05.774Z,24.97
2019-04-14T03:56:44.338Z,25.00
2019-04-14T03:59:12.717Z,25.50
2019-04-14T04:01:41.255Z,25.00
2019-04-14T04:04:09.676Z,24.50
2019-04-14T04:06:37.835Z,26.13
2019-04-14T04:09:06.353Z,25.17
2019-04-14T04:11:34.474Z,24.70
2019-04-14T04:14:02.883Z,25.03
2019-04-14T04:16:55.059Z,26.00
2019-04-14T04:19:49.184Z,24.23
2019-04-14T04:22:30.414Z,25.87
2019-04-14T04:25:18.221Z,24.93
2019-04-14T04:27:54.750Z,24.53
2019-04-14T04:30:42.666Z,25.13
2019-04-14T04:33:17.680Z,23.40
2019-04-14T04:35:50.062Z,24.47
2019-04-14T04:38:37.743Z,25.50
2019-04-14T04:41:05.867Z,24.13
2019-04-14T04:43:34.071Z,25.07
2019-04-14T04:46:02.645Z,24.03
2019-04-14T04:48:30.702Z,23.37
2019-04-14T04:50:58.589Z,22.93
2019-04-14T04:53:26.716Z,23.70
2019-04-14T04:55:54.636Z,23.20
2019-04-14T04:58:22.095Z,23.03
2019-04-14T05:00:52.571Z,23.00
2019-04-14T05:03:18.992Z,23.87
2019-04-14T05:06:07.158Z,21.50
2019-04-14T05:08:35.367Z,21.60
2019-04-14T05:11:20.928Z,22.10
2019-04-14T05:13:48.996Z,22.47
2019-04-14T05:16:17.072Z,21.73
2019-04-14T05:18:44.594Z,21.57
2019-04-14T05:21:12.715Z,22.00
2019-04-14T05:23:41.009Z,22.13
2019-04-14T05:26:09.176Z,20.87
2019-04-14T05:28:37.436Z,21.37
2019-04-14T05:31:05.463Z,20.03
2019-04-14T05:33:33.650Z,20.00
2019-04-14T05:36:02.115Z,20.30
2019-04-14T05:38:32.219Z,19.30
2019-04-14T05:40:58.874Z,21.00
2019-04-14T05:43:34.555Z,19.70
2019-04-14T05:45:56.580Z,19.07
2019-04-14T05:48:25.120Z,21.23
2019-04-14T05:50:53.412Z,20.17
2019-04-14T05:53:21.829Z,18.90
2019-04-14T05:55:50.341Z,19.70
2019-04-14T05:58:18.597Z,20.57
2019-04-14T06:00:46.564Z,20.23
2019-04-14T06:03:14.984Z,18.27
2019-04-14T06:05:42.822Z,18.33
2019-04-14T06:08:10.384Z,18.83
2019-04-14T06:10:37.813Z,18.57
2019-04-14T06:13:05.374Z,19.00
2019-04-14T06:15:34.351Z,17.83
2019-04-14T06:18:01.831Z,17.80
2019-04-14T06:20:29.315Z,17.03
2019-04-14T06:22:56.863Z,18.07
2019-04-14T06:25:24.337Z,16.77
2019-04-14T06:27:51.954Z,16.73
2019-04-14T06:30:38.952Z,15.57
2019-04-14T06:33:28.944Z,16.37
2019-04-14T06:36:34.218Z,15.63
2019-04-14T06:39:13.696Z,14.63
2019-04-14T06:41:41.212Z,16.23
2019-04-14T06:44:08.730Z,15.30
2019-04-14T06:46:36.265Z,15.80
2019-04-14T06:49:03.746Z,15.60
2019-04-14T06:51:31.362Z,13.67
2019-04-14T06:53:58.830Z,15.37
2019-04-14T06:56:26.350Z,15.27
2019-04-14T06:58:53.933Z,15.00
2019-04-14T07:01:21.381Z,13.77
2019-04-14T07:03:48.923Z,15.50
2019-04-14T07:06:16.365Z,14.10
2019-04-14T07:08:43.830Z,14.00
2019-04-14T07:11:11.691Z,13.47
2019-04-14T07:13:40.105Z,14.70
2019-04-14T07:16:07.616Z,14.80
2019-04-14T07:18:35.071Z,14.57
2019-04-14T07:21:02.499Z,13.77
2019-04-14T07:23:29.977Z,14.33
2019-04-14T07:25:57.410Z,13.60
2019-04-14T07:28:24.866Z,15.57
2019-04-14T07:31:20.383Z,15.17
2019-04-14T07:34:08.243Z,14.03
2019-04-14T07:36:53.729Z,14.07
2019-04-14T07:39:37.182Z,16.23
2019-04-14T07:42:08.478Z,14.83
2019-04-14T07:44:58.045Z,15.03
2019-04-14T07:47:29.408Z,15.07
2019-04-14T07:50:15.343Z,13.67
2019-04-14T07:52:53.226Z,14.23
2019-04-14T07:55:39.217Z,14.97
2019-04-14T07:58:29.412Z,15.27
2019-04-14T08:01:01.460Z,15.10
2019-04-14T08:03:38.562Z,14.30
2019-04-14T08:06:05.982Z,14.40
2019-04-14T08:08:33.418Z,14.23
2019-04-14T08:11:00.907Z,15.18
2019-04-14T08:13:28.484Z,14.58
2019-04-14T08:15:55.921Z,14.83
2019-04-14T08:18:23.465Z,14.30
2019-04-14T08:20:50.845Z,14.28
2019-04-14T08:23:18.387Z,14.28
2019-04-14T08:25:45.811Z,14.40
2019-04-14T08:28:13.262Z,14.65
2019-04-14T08:30:40.698Z,15.00
2019-04-14T08:33:08.171Z,14.77
2019-04-14T08:35:35.656Z,13.90
2019-04-14T08:38:03.211Z,14.38
2019-04-14T08:40:30.698Z,15.50
2019-04-14T08:43:13.748Z,14.40
2019-04-14T08:48:55.073Z,15.15
2019-04-14T08:51:40.744Z,14.43
2019-04-14T08:54:26.698Z,14.28
2019-04-14T08:57:01.861Z,14.40
2019-04-14T08:59:44.825Z,17.37
2019-04-14T09:02:23.087Z,16.48
2019-04-14T09:04:58.347Z,17.62
2019-04-14T09:07:29.502Z,17.60
2019-04-14T09:10:01.130Z,17.20
2019-04-14T09:12:49.301Z,18.00
2019-04-14T09:15:16.784Z,17.67
2019-04-14T09:17:44.255Z,17.85
2019-04-14T09:20:11.696Z,18.60
2019-04-14T09:22:39.154Z,17.60
2019-04-14T09:25:07.184Z,18.07
2019-04-14T09:27:34.650Z,17.73
2019-04-14T09:30:02.114Z,17.60
2019-04-14T09:32:30.269Z,16.77
2019-04-14T09:34:57.684Z,18.00
2019-04-14T09:37:25.132Z,17.45
2019-04-14T09:39:52.567Z,17.05
2019-04-14T09:42:20.058Z,17.05
2019-04-14T09:44:47.959Z,17.85
2019-04-14T09:47:15.432Z,18.00
2019-04-14T09:49:42.883Z,16.40
2019-04-14T09:52:10.340Z,17.45
2019-04-14T09:54:37.764Z,15.40
2019-04-14T09:57:05.342Z,17.20
2019-04-14T09:59:32.768Z,17.60
2019-04-14T10:02:00.616Z,17.62
2019-04-14T10:04:28.076Z,16.55
2019-04-14T10:06:55.543Z,16.60
2019-04-14T10:09:22.998Z,15.65
2019-04-14T10:11:54.671Z,16.80
2019-04-14T10:14:19.738Z,18.00
2019-04-14T10:16:47.228Z,17.45
2019-04-14T10:19:14.692Z,16.85
2019-04-14T10:21:42.127Z,16.80
2019-04-14T10:24:09.585Z,16.10
2019-04-14T10:26:38.118Z,16.23
2019-04-14T10:29:05.607Z,15.30
2019-04-14T10:31:33.071Z,16.23
2019-04-14T10:34:00.601Z,16.05
2019-04-14T10:36:28.032Z,15.78
2019-04-14T10:38:55.813Z,15.63
2019-04-14T10:41:23.553Z,16.85
2019-04-14T10:43:51.385Z,17.40
2019-04-14T10:46:18.864Z,16.80
2019-04-14T10:48:46.292Z,16.42
2019-04-14T10:51:14.027Z,16.70
2019-04-14T10:53:41.531Z,17.17
2019-04-14T10:56:08.951Z,17.02
2019-04-14T10:58:36.414Z,16.27
2019-04-14T11:01:04.094Z,16.85
2019-04-14T11:03:31.563Z,17.15
2019-04-14T11:06:07.291Z,16.93
2019-04-14T11:08:34.763Z,16.90
2019-04-14T11:11:02.197Z,17.67
2019-04-14T11:13:29.647Z,17.10
2019-04-14T11:15:57.113Z,19.07
2019-04-14T11:18:24.578Z,18.82
2019-04-14T11:20:52.312Z,17.48
2019-04-14T11:23:19.763Z,18.30
2019-04-14T11:25:47.219Z,18.75
2019-04-14T11:28:14.678Z,19.07
2019-04-14T11:30:42.160Z,19.15
2019-04-14T11:33:15.043Z,16.97
2019-04-14T11:36:02.542Z,18.82
2019-04-14T11:38:43.381Z,17.75
2019-04-14T11:41:14.846Z,17.30
2019-04-14T11:43:42.316Z,17.12
2019-04-14T11:46:09.772Z,17.12
2019-04-14T11:48:37.193Z,17.52
2019-04-14T11:51:04.661Z,16.50
2019-04-14T11:53:32.085Z,15.70
2019-04-14T11:55:59.592Z,16.07
2019-04-14T11:58:29.122Z,17.95
2019-04-14T12:01:18.397Z,16.55
2019-04-14T12:03:59.965Z,17.00
2019-04-14T12:06:49.770Z,16.57
2019-04-14T12:09:39.494Z,15.68
2019-04-14T12:12:08.827Z,14.63
2019-04-14T12:14:36.314Z,15.75
2019-04-14T12:17:03.796Z,16.70
2019-04-14T12:19:31.268Z,15.18
2019-04-14T12:22:08.156Z,16.60
2019-04-14T12:24:28.407Z,15.30
2019-04-14T12:26:55.819Z,16.07
2019-04-14T12:29:24.113Z,14.75
2019-04-14T12:31:53.013Z,13.68
2019-04-14T12:34:20.542Z,14.03
2019-04-14T12:36:48.057Z,12.93
2019-04-14T12:39:20.219Z,13.20
2019-04-14T12:41:52.713Z,13.20
2019-04-14T12:44:40.075Z,12.47
2019-04-14T12:47:25.468Z,11.55
2019-04-14T12:49:53.815Z,11.65
2019-04-14T12:52:23.317Z,11.08
2019-04-14T12:54:50.765Z,12.00
2019-04-14T12:57:24.591Z,12.50
2019-04-14T12:59:52.714Z,11.73
2019-04-14T13:02:22.329Z,12.80
2019-04-14T13:04:49.821Z,12.45
2019-04-14T13:07:17.690Z,12.65
2019-04-14T13:09:45.631Z,13.50
2019-04-14T13:12:13.119Z,13.48
2019-04-14T13:14:40.747Z,11.53
2019-04-14T13:17:08.310Z,13.30
2019-04-14T13:19:36.120Z,12.93
2019-04-14T13:22:04.191Z,11.95
2019-04-14T13:24:31.642Z,12.25
2019-04-14T13:26:59.241Z,12.80
2019-04-14T13:29:27.036Z,12.20
2019-04-14T13:31:54.609Z,12.23
2019-04-14T13:34:22.360Z,12.30
2019-04-14T13:36:50.014Z,11.57
2019-04-14T13:39:17.486Z,12.53
2019-04-14T13:41:45.563Z,13.13
2019-04-14T13:44:13.110Z,12.07
2019-04-14T13:46:41.044Z,12.70
2019-04-14T13:49:08.553Z,12.85
2019-04-14T13:51:36.194Z,12.33
2019-04-14T13:54:04.296Z,12.05
2019-04-14T13:56:31.761Z,12.07
2019-04-14T13:58:59.659Z,10.58
2019-04-14T14:01:27.234Z,12.05
2019-04-14T14:03:55.095Z,11.30
2019-04-14T14:06:23.417Z,12.30
2019-04-14T14:08:51.240Z,11.15
2019-04-14T14:11:47.316Z,12.67
2019-04-14T14:14:27.878Z,11.53
2019-04-14T14:17:00.951Z,12.53
2019-04-14T14:19:42.619Z,10.87
2019-04-14T14:22:26.221Z,12.30
2019-04-14T14:24:58.901Z,11.40
2019-04-14T14:27:26.413Z,10.93
2019-04-14T14:29:54.596Z,12.87
2019-04-14T14:32:36.018Z,10.93
2019-04-14T14:35:07.182Z,11.73
2019-04-14T14:37:35.821Z,11.83
2019-04-14T14:40:04.739Z,11.87
2019-04-14T14:42:32.300Z,12.80
2019-04-14T14:45:17.619Z,11.90
2019-04-14T14:47:56.447Z,10.17
2019-04-14T14:50:30.888Z,11.17
2019-04-14T14:53:11.018Z,11.17
2019-04-14T14:55:28.284Z,12.13
2019-04-14T14:57:56.449Z,12.13
2019-04-14T15:00:34.289Z,10.47
2019-04-14T15:03:02.477Z,11.93
2019-04-14T15:05:30.053Z,10.23
2019-04-14T15:07:57.655Z,11.00
2019-04-14T15:10:25.147Z,11.60
2019-04-14T15:12:52.697Z,10.77
2019-04-14T15:15:20.512Z,11.03
2019-04-14T15:17:48.029Z,10.63
2019-04-14T15:20:16.009Z,10.80
2019-04-14T15:22:43.553Z,10.67
2019-04-14T15:25:11.071Z,9.73
2019-04-14T15:27:38.597Z,10.37
2019-04-14T15:30:08.317Z,10.00
2019-04-14T15:32:36.782Z,9.90
2019-04-14T15:35:04.668Z,10.37
2019-04-14T15:37:32.354Z,9.90
2019-04-14T15:40:00.202Z,9.57
2019-04-14T15:42:27.835Z,9.73
2019-04-14T15:44:55.351Z,10.00
2019-04-14T15:47:22.876Z,10.03
2019-04-14T15:49:51.135Z,8.73
2019-04-14T15:52:18.695Z,8.70
2019-04-14T15:54:47.134Z,8.60
2019-04-14T15:57:25.654Z,8.70
2019-04-14T15:59:59.797Z,6.90
2019-04-14T16:02:43.403Z,7.00
2019-04-14T16:05:24.561Z,7.13
2019-04-14T16:08:06.872Z,6.03
2019-04-14T16:10:39.424Z,5.63
2019-04-14T16:13:29.549Z,5.63
2019-04-14T16:16:16.661Z,5.40
2019-04-14T16:19:03.733Z,6.03
2019-04-14T16:21:31.229Z,6.60
2019-04-14T16:23:58.830Z,5.73
2019-04-14T16:26:34.773Z,5.77
2019-04-14T16:29:27.984Z,5.63
2019-04-14T16:32:07.166Z,5.60
2019-04-14T16:34:46.586Z,6.17
2019-04-14T16:37:14.408Z,5.83
2019-04-14T16:39:41.887Z,6.23
2019-04-14T16:42:09.419Z,6.23
2019-04-14T16:44:36.905Z,6.80
2019-04-14T16:47:04.900Z,5.90
2019-04-14T16:49:32.702Z,6.03
2019-04-14T16:52:07.257Z,6.43
2019-04-14T16:55:00.065Z,6.17
2019-04-14T16:57:50.121Z,6.33
2019-04-14T17:00:24.911Z,6.33
2019-04-14T17:02:52.423Z,6.30
2019-04-14T17:05:19.938Z,5.93
2019-04-14T17:07:47.474Z,6.30
2019-04-14T17:10:14.949Z,5.87
2019-04-14T17:12:42.606Z,5.40
2019-04-14T17:15:29.676Z,6.57
2019-04-14T17:18:13.725Z,6.40
2019-04-14T17:21:07.758Z,5.77
2019-04-14T17:23:42.030Z,6.00
2019-04-14T17:26:15.980Z,6.10
2019-04-14T17:29:12.074Z,6.90
2019-04-14T17:31:47.588Z,5.83
2019-04-14T17:34:40.370Z,5.53
2019-04-14T17:37:33.337Z,5.97
2019-04-14T17:40:10.138Z,5.50
2019-04-14T17:42:57.114Z,5.67
2019-04-14T17:45:43.511Z,5.90
2019-04-14T17:48:29.605Z,5.93
2019-04-14T17:51:07.713Z,5.43
2019-04-14T17:53:46.787Z,6.03
2019-04-14T17:56:24.248Z,5.43
2019-04-14T17:58:59.326Z,5.63
2019-04-14T18:01:37.399Z,5.20
2019-04-14T18:04:20.845Z,5.80
2019-04-14T18:07:01.811Z,5.70
2019-04-14T18:09:49.332Z,5.70
2019-04-14T18:12:35.321Z,5.90
2019-04-14T18:15:11.721Z,5.20
2019-04-14T18:18:04.499Z,6.40
2019-04-14T18:20:39.228Z,5.23
2019-04-14T18:23:06.657Z,5.53
2019-04-14T18:25:34.790Z,4.87
2019-04-14T18:28:39.841Z,5.17
2019-04-14T18:31:29.749Z,5.30
2019-04-14T18:34:15.723Z,5.23
2019-04-14T18:36:49.784Z,4.97
2019-04-14T18:39:35.501Z,5.07
2019-04-14T18:42:22.479Z,5.47
2019-04-14T18:45:05.537Z,5.10
2019-04-14T18:47:45.442Z,5.23
2019-04-14T18:50:21.027Z,4.50
2019-04-14T18:53:05.278Z,4.90
2019-04-14T18:55:58.186Z,4.90
2019-04-14T18:59:00.572Z,4.87
2019-04-14T19:01:31.619Z,5.30
2019-04-14T19:04:02.072Z,5.60
2019-04-14T19:06:28.628Z,5.40
2019-04-14T19:08:56.135Z,5.20
2019-04-14T19:11:37.227Z,5.83
2019-04-14T19:14:05.501Z,5.57
2019-04-14T19:16:39.624Z,5.67
2019-04-14T19:19:07.067Z,5.60
2019-04-14T19:21:34.536Z,6.60
2019-04-14T19:24:01.971Z,6.43
2019-04-14T19:26:29.424Z,6.90
2019-04-14T19:28:56.871Z,6.93
2019-04-14T19:31:24.317Z,6.43
2019-04-14T19:33:51.795Z,7.23
2019-04-14T19:36:19.214Z,6.73
2019-04-14T19:38:46.665Z,7.40
2019-04-14T19:41:14.589Z,8.10
2019-04-14T19:43:42.133Z,7.80
2019-04-14T19:46:09.863Z,8.10
2019-04-14T19:48:37.356Z,7.67
2019-04-14T19:51:04.854Z,7.90
2019-04-14T19:53:32.796Z,7.43
2019-04-14T19:56:00.277Z,8.43
2019-04-14T19:58:28.760Z,8.87
2019-04-14T20:00:56.223Z,9.67
2019-04-14T20:03:23.713Z,9.13
2019-04-14T20:05:51.651Z,9.70
2019-04-14T20:08:19.042Z,9.77
2019-04-14T20:10:46.462Z,10.30
2019-04-14T20:13:13.981Z,10.20
2019-04-14T20:16:13.133Z,10.50
2019-04-14T20:19:10.618Z,11.10
2019-04-14T20:22:09.998Z,10.37
2019-04-14T20:24:42.722Z,11.17
2019-04-14T20:27:21.530Z,9.87
2019-04-14T20:29:51.859Z,10.67
2019-04-14T20:32:22.374Z,10.83
2019-04-14T20:34:49.783Z,9.77
2019-04-14T20:37:17.202Z,10.60
2019-04-14T20:39:44.630Z,11.47
2019-04-14T20:42:12.463Z,11.30
2019-04-14T20:44:39.938Z,11.40
2019-04-14T20:47:08.384Z,11.20
2019-04-14T20:49:38.443Z,10.13
2019-04-14T20:52:06.706Z,10.57
2019-04-14T20:54:34.157Z,10.23
2019-04-14T20:57:01.888Z,11.17
2019-04-14T20:59:29.316Z,11.43
2019-04-14T21:02:03.652Z,10.60
2019-04-14T21:04:42.987Z,11.13
2019-04-14T21:07:22.899Z,11.20
2019-04-14T21:10:12.827Z,9.93
2019-04-14T21:12:52.921Z,11.37
2019-04-14T21:15:48.913Z,10.60
2019-04-14T21:18:38.590Z,10.73
2019-04-14T21:21:40.919Z,11.10
2019-04-14T21:24:15.990Z,10.60
2019-04-14T21:27:03.077Z,11.20
2019-04-14T21:29:44.259Z,10.40
2019-04-14T21:32:17.842Z,11.40
2019-04-14T21:35:13.460Z,11.10
2019-04-14T21:38:04.008Z,10.77
2019-04-14T21:40:43.851Z,10.60
2019-04-14T21:43:11.307Z,11.57
2019-04-14T21:45:38.747Z,10.63
2019-04-14T21:48:06.174Z,12.07
2019-04-14T21:50:33.631Z,10.93
2019-04-14T21:53:01.074Z,11.47
2019-04-14T21:55:28.539Z,11.37
2019-04-14T21:58:14.663Z,10.73
2019-04-14T22:01:41.314Z,11.83
2019-04-14T22:04:32.004Z,11.53
2019-04-14T22:07:09.314Z,12.47
2019-04-14T22:09:36.878Z,11.40
2019-04-14T22:12:06.115Z,13.03
2019-04-14T22:14:33.558Z,13.40
2019-04-14T22:17:00.986Z,12.40
2019-04-14T22:19:28.852Z,13.10
2019-04-14T22:21:56.273Z,12.63
2019-04-14T22:24:24.098Z,12.87
2019-04-14T22:26:51.522Z,12.37
2019-04-14T22:29:18.979Z,13.57
2019-04-14T22:31:46.485Z,14.40
2019-04-14T22:34:13.951Z,13.07
2019-04-14T22:36:41.394Z,13.60
2019-04-14T22:39:13.938Z,13.07
2019-04-14T22:41:41.357Z,13.93
2019-04-14T22:44:08.765Z,13.63
2019-04-14T22:46:36.206Z,13.43
2019-04-14T22:49:03.670Z,14.10
2019-04-14T22:51:31.122Z,13.97
2019-04-14T22:53:58.873Z,14.87
2019-04-14T22:56:38.348Z,14.27
2019-04-14T22:58:55.608Z,13.50
2019-04-14T23:01:27.126Z,14.43
2019-04-14T23:04:12.789Z,13.53
2019-04-14T23:07:05.936Z,15.50
2019-04-14T23:10:04.773Z,13.93
2019-04-14T23:12:57.759Z,14.00
2019-04-14T23:15:47.389Z,13.83
2019-04-14T23:18:34.573Z,15.27
2019-04-14T23:21:10.403Z,14.33
2019-04-14T23:23:56.442Z,14.67
2019-04-14T23:26:23.988Z,14.90
2019-04-14T23:28:51.435Z,15.00
2019-04-14T23:31:18.877Z,15.23
2019-04-14T23:33:46.467Z,15.63
2019-04-14T23:36:13.904Z,14.47
2019-04-14T23:38:42.558Z,14.33
2019-04-14T23:41:10.011Z,15.80
2019-04-14T23:43:37.437Z,14.67
2019-04-14T23:46:04.902Z,14.70
2019-04-14T23:48:32.326Z,14.80
2019-04-14T23:50:59.795Z,14.93
2019-04-14T23:53:27.226Z,14.33
2019-04-14T23:55:54.713Z,15.30
2019-04-14T23:58:22.182Z,15.17
